createdAt,value
2024-02-21T00:01:18.612Z,86.20
2024-02-21T00:03:45.455Z,86.42
2024-02-21T00:06:12.029Z,87.04
2024-02-21T00:08:38.780Z,86.73
2024-02-21T00:11:05.759Z,86.64
2024-02-21T00:13:32.540Z,86.13
2024-02-21T00:15:59.178Z,86.65
2024-02-21T00:18:28.876Z,86.86
2024-02-21T00:20:57.251Z,86.39
2024-02-21T00:23:23.905Z,86.42
2024-02-21T00:25:51.152Z,86.39
2024-02-21T00:28:18.172Z,86.42
2024-02-21T00:30:45.004Z,86.17
2024-02-21T00:33:11.766Z,86.65
2024-02-21T00:35:38.425Z,87.00
2024-02-21T00:38:04.889Z,86.77
2024-02-21T00:40:31.868Z,86.21
2024-02-21T00:42:58.417Z,86.33
2024-02-21T00:45:24.931Z,86.43
2024-02-21T00:47:51.459Z,85.72
2024-02-21T00:50:18.156Z,86.23
2024-02-21T00:52:45.818Z,85.78
2024-02-21T00:55:12.552Z,85.98
2024-02-21T00:57:39.024Z,86.69
2024-02-21T01:00:06.274Z,86.52
2024-02-21T01:02:32.960Z,86.88
2024-02-21T01:04:59.746Z,86.90
2024-02-21T01:07:26.396Z,86.56
2024-02-21T01:09:53.823Z,87.11
2024-02-21T01:12:20.415Z,87.18
2024-02-21T01:14:50.487Z,86.88
2024-02-21T01:17:16.987Z,86.47
2024-02-21T01:19:43.499Z,87.39
2024-02-21T01:22:10.094Z,87.20
2024-02-21T01:24:36.565Z,86.67
2024-02-21T01:27:04.030Z,86.61
2024-02-21T01:29:30.480Z,86.32
2024-02-21T01:31:57.114Z,86.42
2024-02-21T01:34:23.921Z,85.94
2024-02-21T01:36:50.515Z,86.42
2024-02-21T01:39:17.097Z,86.10
2024-02-21T01:41:43.637Z,86.71
2024-02-21T01:44:10.072Z,85.94
2024-02-21T01:46:36.633Z,86.53
2024-02-21T01:49:03.525Z,86.82
2024-02-21T01:51:30.072Z,86.68
2024-02-21T01:53:58.176Z,86.39
2024-02-21T01:56:25.365Z,86.13
2024-02-21T01:58:52.915Z,85.87
2024-02-21T02:01:22.092Z,87.05
2024-02-21T02:03:49.902Z,87.22
2024-02-21T02:06:16.895Z,86.94
2024-02-21T02:08:43.930Z,87.89
2024-02-21T02:11:11.218Z,87.58
2024-02-21T02:13:37.796Z,88.21
2024-02-21T02:16:04.949Z,87.48
2024-02-21T02:18:31.643Z,87.97
2024-02-21T02:20:58.445Z,87.63
2024-02-21T02:23:26.749Z,87.81
2024-02-21T02:25:53.655Z,87.79
2024-02-21T02:28:21.504Z,87.95
2024-02-21T02:30:48.824Z,87.67
2024-02-21T02:33:15.566Z,88.02
2024-02-21T02:35:42.229Z,88.47
2024-02-21T02:38:08.727Z,87.01
2024-02-21T02:40:35.787Z,88.06
2024-02-21T02:43:02.771Z,86.82
2024-02-21T02:45:29.316Z,88.02
2024-02-21T02:47:57.840Z,87.31
2024-02-21T02:50:25.266Z,87.22
2024-02-21T02:52:51.950Z,87.65
2024-02-21T02:55:18.551Z,87.13
2024-02-21T02:57:45.277Z,87.16
2024-02-21T03:00:12.774Z,86.97
2024-02-21T03:02:44.119Z,86.34
2024-02-21T03:05:16.539Z,86.95
2024-02-21T03:07:44.207Z,86.85
2024-02-21T03:10:11.343Z,86.56
2024-02-21T03:12:38.370Z,86.78
2024-02-21T03:15:05.752Z,86.52
2024-02-21T03:17:33.234Z,87.16
2024-02-21T03:20:05.779Z,86.71
2024-02-21T03:22:33.749Z,86.70
2024-02-21T03:25:00.330Z,86.50
2024-02-21T03:27:26.898Z,86.43
2024-02-21T03:29:53.509Z,85.82
2024-02-21T03:32:20.039Z,86.77
2024-02-21T03:34:46.568Z,85.43
2024-02-21T03:37:14.947Z,86.87
2024-02-21T03:39:42.217Z,86.58
2024-02-21T03:42:08.720Z,85.96
2024-02-21T03:44:35.389Z,86.28
2024-02-21T03:47:02.155Z,87.12
2024-02-21T03:49:28.936Z,85.76
2024-02-21T03:51:55.852Z,86.56
2024-02-21T03:54:22.735Z,86.50
2024-02-21T03:56:49.927Z,86.72
2024-02-21T03:59:16.543Z,86.26
2024-02-21T04:01:43.138Z,86.36
2024-02-21T04:04:10.924Z,85.59
2024-02-21T04:06:37.703Z,85.30
2024-02-21T04:09:04.589Z,86.02
2024-02-21T04:11:31.226Z,85.89
2024-02-21T04:13:57.891Z,85.50
2024-02-21T04:16:24.885Z,85.77
2024-02-21T04:18:51.497Z,85.49
2024-02-21T04:21:18.244Z,85.89
2024-02-21T04:23:44.858Z,85.71
2024-02-21T04:26:11.376Z,85.44
2024-02-21T04:28:37.865Z,85.97
2024-02-21T04:31:04.616Z,86.11
2024-02-21T04:33:31.078Z,86.00
2024-02-21T04:35:59.699Z,85.00
2024-02-21T04:38:26.221Z,85.08
2024-02-21T04:40:52.958Z,85.60
2024-02-21T04:43:19.677Z,85.88
2024-02-21T04:45:46.161Z,85.79
2024-02-21T04:48:12.629Z,85.92
2024-02-21T04:50:39.278Z,85.56
2024-02-21T04:53:05.990Z,86.28
2024-02-21T04:55:32.624Z,85.90
2024-02-21T04:57:59.105Z,85.67
2024-02-21T05:00:25.569Z,86.39
2024-02-21T05:02:52.046Z,86.02
2024-02-21T05:05:18.718Z,86.07
2024-02-21T05:07:45.265Z,86.13
2024-02-21T05:10:11.744Z,86.82
2024-02-21T05:12:38.224Z,86.30
2024-02-21T05:15:05.223Z,86.62
2024-02-21T05:17:31.832Z,87.53
2024-02-21T05:19:58.571Z,86.41
2024-02-21T05:22:25.293Z,86.75
2024-02-21T05:24:51.942Z,86.48
2024-02-21T05:27:18.415Z,86.61
2024-02-21T05:29:45.511Z,86.74
2024-02-21T05:32:12.141Z,87.12
2024-02-21T05:34:39.011Z,86.15
2024-02-21T05:37:05.716Z,86.08
2024-02-21T05:39:32.189Z,86.38
2024-02-21T05:41:58.655Z,86.50
2024-02-21T05:44:25.309Z,87.11
2024-02-21T05:46:51.932Z,86.72
2024-02-21T05:49:18.772Z,86.63
2024-02-21T05:51:45.399Z,86.10
2024-02-21T05:54:11.945Z,86.41
2024-02-21T05:56:38.638Z,86.09
2024-02-21T05:59:05.108Z,86.09
2024-02-21T06:01:31.724Z,86.35
2024-02-21T06:03:58.253Z,86.15
2024-02-21T06:06:25.054Z,85.62
2024-02-21T06:08:51.516Z,86.05
2024-02-21T06:11:18.151Z,85.97
2024-02-21T06:13:44.774Z,86.14
2024-02-21T06:16:11.320Z,86.91
2024-02-21T06:18:40.727Z,86.40
2024-02-21T06:21:07.249Z,86.68
2024-02-21T06:23:33.776Z,86.62
2024-02-21T06:26:00.539Z,86.29
2024-02-21T06:28:27.162Z,86.35
2024-02-21T06:30:53.667Z,86.66
2024-02-21T06:33:23.864Z,86.92
2024-02-21T06:35:53.185Z,86.77
2024-02-21T06:38:20.410Z,86.34
2024-02-21T06:40:50.870Z,86.45
2024-02-21T06:43:21.660Z,86.74
2024-02-21T06:45:51.674Z,86.21
2024-02-21T06:48:19.653Z,86.30
2024-02-21T06:50:46.309Z,85.60
2024-02-21T06:53:13.154Z,86.05
2024-02-21T06:55:39.767Z,85.81
2024-02-21T06:58:06.398Z,85.23
2024-02-21T07:00:32.842Z,86.26
2024-02-21T07:02:59.359Z,85.19
2024-02-21T07:05:25.886Z,85.13
2024-02-21T07:07:52.613Z,85.06
2024-02-21T07:10:19.215Z,85.52
2024-02-21T07:12:45.762Z,85.67
2024-02-21T07:15:12.294Z,86.24
2024-02-21T07:17:38.818Z,85.09
2024-02-21T07:20:05.936Z,85.32
2024-02-21T07:22:32.432Z,85.62
2024-02-21T07:24:58.906Z,85.76
2024-02-21T07:27:28.988Z,85.02
2024-02-21T07:29:55.451Z,85.73
2024-02-21T07:32:21.945Z,85.49
2024-02-21T07:34:48.464Z,85.33
2024-02-21T07:37:15.064Z,85.14
2024-02-21T07:39:42.221Z,83.93
2024-02-21T07:42:08.704Z,83.91
2024-02-21T07:44:35.685Z,83.78
2024-02-21T07:47:02.313Z,83.88
2024-02-21T07:49:29.051Z,82.80
2024-02-21T07:51:55.682Z,83.25
2024-02-21T07:54:22.132Z,82.91
2024-02-21T07:56:49.644Z,82.94
2024-02-21T07:59:16.269Z,82.75
2024-02-21T08:01:42.745Z,82.19
2024-02-21T08:04:09.621Z,81.16
2024-02-21T08:06:36.257Z,80.53
2024-02-21T08:09:03.113Z,79.88
2024-02-21T08:11:29.612Z,80.78
2024-02-21T08:13:56.113Z,79.27
2024-02-21T08:16:22.835Z,79.40
2024-02-21T08:18:49.351Z,79.34
2024-02-21T08:21:15.811Z,78.83
2024-02-21T08:23:42.261Z,77.56
2024-02-21T08:26:08.831Z,77.05
2024-02-21T08:28:35.426Z,77.13
2024-02-21T08:31:02.086Z,75.94
2024-02-21T08:33:30.497Z,76.21
2024-02-21T08:35:57.119Z,76.29
2024-02-21T08:38:23.609Z,76.23
2024-02-21T08:40:50.154Z,75.93
2024-02-21T08:43:16.609Z,74.90
2024-02-21T08:45:43.049Z,75.04
2024-02-21T08:48:09.712Z,75.05
2024-02-21T08:50:37.691Z,74.24
2024-02-21T08:53:04.525Z,74.40
2024-02-21T08:55:31.086Z,73.67
2024-02-21T08:57:57.577Z,71.82
2024-02-21T09:00:28.289Z,71.22
2024-02-21T09:02:57.040Z,70.12
2024-02-21T09:05:24.500Z,69.19
2024-02-21T09:07:51.389Z,68.16
2024-02-21T09:10:18.042Z,67.89
2024-02-21T09:12:44.860Z,68.67
2024-02-21T09:15:11.777Z,68.99
2024-02-21T09:17:38.282Z,68.82
2024-02-21T09:20:05.384Z,68.79
2024-02-21T09:22:34.897Z,68.86
2024-02-21T09:25:02.279Z,67.31
2024-02-21T09:27:28.700Z,67.06
2024-02-21T09:29:55.506Z,66.64
2024-02-21T09:32:22.604Z,66.71
2024-02-21T09:34:49.232Z,66.30
2024-02-21T09:37:15.752Z,65.80
2024-02-21T09:39:42.212Z,65.87
2024-02-21T09:42:12.323Z,65.65
2024-02-21T09:44:39.756Z,66.15
2024-02-21T09:47:20.251Z,66.12
2024-02-21T09:49:46.906Z,65.84
2024-02-21T09:52:15.394Z,66.31
2024-02-21T09:54:45.632Z,66.32
2024-02-21T09:57:12.564Z,66.55
2024-02-21T09:59:39.105Z,66.64
2024-02-21T10:02:06.245Z,66.65
2024-02-21T10:04:33.530Z,66.07
2024-02-21T10:07:00.185Z,65.53
2024-02-21T10:09:31.170Z,65.79
2024-02-21T10:12:10.465Z,65.55
2024-02-21T10:14:38.127Z,66.04
2024-02-21T10:17:10.201Z,66.72
2024-02-21T10:19:36.961Z,67.00
2024-02-21T10:22:08.762Z,67.79
2024-02-21T10:24:39.074Z,67.26
2024-02-21T10:27:09.928Z,67.45
2024-02-21T10:29:36.770Z,67.10
2024-02-21T10:32:10.838Z,67.06
2024-02-21T10:34:39.248Z,66.85
2024-02-21T10:37:14.842Z,66.53
2024-02-21T10:39:45.725Z,65.13
2024-02-21T10:42:13.531Z,65.83
2024-02-21T10:44:41.372Z,65.56
2024-02-21T10:47:14.153Z,64.98
2024-02-21T10:49:45.936Z,64.25
2024-02-21T10:52:28.792Z,63.76
2024-02-21T10:55:05.521Z,63.95
2024-02-21T10:57:35.903Z,64.39
2024-02-21T11:00:04.598Z,63.28
2024-02-21T11:02:32.606Z,58.42
2024-02-21T11:05:00.280Z,57.62
2024-02-21T11:07:27.676Z,57.62
2024-02-21T11:09:58.263Z,59.06
2024-02-21T11:12:26.611Z,58.41
2024-02-21T11:14:53.410Z,57.65
2024-02-21T11:17:27.791Z,57.31
2024-02-21T11:19:54.634Z,56.54
2024-02-21T11:22:26.142Z,56.07
2024-02-21T11:24:52.841Z,55.60
2024-02-21T11:27:26.879Z,55.42
2024-02-21T11:29:57.733Z,55.97
2024-02-21T11:32:24.736Z,56.01
2024-02-21T11:35:05.973Z,55.24
2024-02-21T11:37:35.774Z,55.05
2024-02-21T11:40:04.234Z,54.98
2024-02-21T11:42:31.756Z,55.72
2024-02-21T11:44:58.430Z,56.13
2024-02-21T11:47:25.578Z,55.26
2024-02-21T11:49:55.135Z,53.90
2024-02-21T11:52:27.035Z,55.35
2024-02-21T11:54:55.651Z,55.53
2024-02-21T11:57:22.372Z,55.88
2024-02-21T11:59:50.367Z,56.78
2024-02-21T12:02:18.424Z,57.07
2024-02-21T12:04:45.771Z,56.26
2024-02-21T12:07:12.584Z,57.03
2024-02-21T12:09:39.076Z,57.26
2024-02-21T12:12:06.741Z,56.75
2024-02-21T12:14:35.863Z,56.78
2024-02-21T12:17:05.365Z,57.05
2024-02-21T12:19:32.875Z,55.54
2024-02-21T12:22:00.967Z,55.08
2024-02-21T12:24:29.206Z,55.18
2024-02-21T12:26:57.696Z,53.77
2024-02-21T12:29:29.737Z,52.51
2024-02-21T12:31:56.688Z,54.06
2024-02-21T12:34:31.559Z,53.90
2024-02-21T12:37:05.526Z,53.74
2024-02-21T12:39:33.105Z,53.46
2024-02-21T12:41:59.954Z,54.07
2024-02-21T12:44:26.638Z,54.01
2024-02-21T12:46:55.174Z,52.97
2024-02-21T12:49:22.004Z,52.46
2024-02-21T12:51:48.690Z,52.45
2024-02-21T12:54:15.159Z,53.33
2024-02-21T12:56:41.675Z,52.94
2024-02-21T12:59:10.994Z,51.56
2024-02-21T13:01:39.066Z,51.08
2024-02-21T13:04:06.110Z,51.07
2024-02-21T13:06:32.662Z,52.07
2024-02-21T13:09:00.402Z,51.71
2024-02-21T13:11:29.577Z,52.12
2024-02-21T13:13:56.238Z,52.43
2024-02-21T13:16:23.693Z,52.38
2024-02-21T13:18:50.404Z,52.48
2024-02-21T13:21:17.068Z,52.70
2024-02-21T13:23:45.286Z,52.59
2024-02-21T13:26:12.369Z,52.60
2024-02-21T13:28:39.298Z,51.29
2024-02-21T13:31:05.783Z,52.43
2024-02-21T13:33:32.310Z,52.44
2024-02-21T13:35:59.603Z,53.16
2024-02-21T13:38:26.138Z,52.58
2024-02-21T13:40:52.614Z,51.49
2024-02-21T13:43:19.282Z,51.71
2024-02-21T13:45:57.582Z,50.90
2024-02-21T13:48:24.258Z,50.72
2024-02-21T13:50:51.097Z,50.87
2024-02-21T13:53:21.668Z,51.67
2024-02-21T13:55:48.462Z,51.79
2024-02-21T13:58:15.364Z,52.34
2024-02-21T14:00:41.838Z,52.44
2024-02-21T14:03:08.374Z,53.07
2024-02-21T14:05:34.898Z,53.17
2024-02-21T14:08:01.430Z,52.80
2024-02-21T14:10:28.869Z,53.21
2024-02-21T14:12:56.054Z,54.38
2024-02-21T14:15:22.580Z,54.95
2024-02-21T14:17:49.124Z,55.42
2024-02-21T14:20:17.798Z,56.01
2024-02-21T14:22:45.018Z,55.81
2024-02-21T14:25:11.548Z,56.20
2024-02-21T14:27:38.093Z,55.47
2024-02-21T14:30:05.441Z,55.36
2024-02-21T14:32:32.163Z,55.50
2024-02-21T14:35:01.725Z,55.24
2024-02-21T14:37:29.891Z,54.95
2024-02-21T14:39:56.379Z,55.50
2024-02-21T14:42:22.893Z,55.23
2024-02-21T14:44:49.353Z,54.95
2024-02-21T14:47:15.930Z,55.77
2024-02-21T14:49:42.479Z,56.12
2024-02-21T14:52:09.042Z,56.56
2024-02-21T14:54:35.659Z,57.34
2024-02-21T14:57:03.443Z,57.37
2024-02-21T14:59:34.104Z,58.04
2024-02-21T15:02:01.827Z,57.99
2024-02-21T15:04:28.614Z,57.52
2024-02-21T15:06:55.117Z,58.26
2024-02-21T15:09:21.581Z,58.68
2024-02-21T15:11:48.114Z,58.74
2024-02-21T15:14:14.714Z,58.79
2024-02-21T15:16:41.341Z,59.36
2024-02-21T15:19:09.383Z,58.48
2024-02-21T15:21:35.877Z,58.33
2024-02-21T15:24:02.935Z,58.57
2024-02-21T15:26:30.735Z,59.33
2024-02-21T15:28:57.525Z,59.53
2024-02-21T15:31:24.519Z,59.91
2024-02-21T15:33:54.557Z,59.67
2024-02-21T15:36:21.648Z,59.62
2024-02-21T15:38:48.364Z,59.75
2024-02-21T15:41:15.431Z,59.92
2024-02-21T15:43:43.820Z,59.24
2024-02-21T15:46:13.635Z,59.57
2024-02-21T15:48:40.476Z,59.29
2024-02-21T15:51:07.910Z,58.57
2024-02-21T15:53:34.399Z,57.59
2024-02-21T15:56:01.085Z,58.06
2024-02-21T15:58:28.810Z,57.39
2024-02-21T16:00:55.517Z,57.05
2024-02-21T16:03:22.952Z,56.43
2024-02-21T16:05:49.827Z,56.25
2024-02-21T16:08:19.378Z,57.08
2024-02-21T16:10:46.137Z,57.98
2024-02-21T16:13:12.686Z,57.23
2024-02-21T16:15:39.176Z,57.66
2024-02-21T16:18:06.563Z,58.50
2024-02-21T16:20:33.422Z,59.18
2024-02-21T16:23:04.224Z,59.13
2024-02-21T16:25:31.189Z,60.15
2024-02-21T16:27:58.743Z,60.25
2024-02-21T16:30:25.477Z,60.96
2024-02-21T16:32:53.288Z,61.42
2024-02-21T16:35:20.394Z,61.59
2024-02-21T16:37:48.430Z,62.00
2024-02-21T16:40:15.055Z,62.67
2024-02-21T16:42:41.496Z,62.88
2024-02-21T16:45:09.442Z,63.14
2024-02-21T16:47:37.051Z,63.73
2024-02-21T16:50:06.127Z,64.06
2024-02-21T16:52:32.818Z,64.54
2024-02-21T16:54:59.497Z,64.41
2024-02-21T16:57:25.974Z,65.31
2024-02-21T16:59:52.472Z,65.38
2024-02-21T17:02:19.101Z,65.40
2024-02-21T17:04:45.843Z,65.28
2024-02-21T17:07:12.379Z,65.45
2024-02-21T17:09:39.807Z,65.59
2024-02-21T17:12:08.215Z,65.95
2024-02-21T17:14:35.705Z,65.21
2024-02-21T17:17:03.129Z,65.23
2024-02-21T17:19:29.872Z,65.16
2024-02-21T17:21:56.476Z,65.39
2024-02-21T17:24:24.070Z,65.40
2024-02-21T17:26:50.481Z,65.82
2024-02-21T17:29:17.671Z,65.74
2024-02-21T17:31:44.388Z,65.96
2024-02-21T17:34:11.311Z,66.40
2024-02-21T17:36:37.840Z,66.83
2024-02-21T17:39:04.382Z,66.70
2024-02-21T17:41:30.829Z,67.24
2024-02-21T17:43:57.295Z,67.22
2024-02-21T17:46:24.550Z,67.30
2024-02-21T17:48:51.078Z,67.27
2024-02-21T17:51:17.527Z,67.46
2024-02-21T17:53:44.030Z,67.75
2024-02-21T17:56:10.495Z,68.12
2024-02-21T17:58:37.024Z,68.06
2024-02-21T18:01:03.747Z,68.30
2024-02-21T18:03:31.277Z,68.37
2024-02-21T18:06:04.940Z,68.54
2024-02-21T18:08:32.000Z,68.65
2024-02-21T18:10:58.660Z,68.71
2024-02-21T18:13:25.490Z,68.72
2024-02-21T18:15:52.994Z,69.09
2024-02-21T18:18:19.482Z,68.98
2024-02-21T18:20:46.157Z,68.81
2024-02-21T18:23:12.833Z,68.85
2024-02-21T18:25:41.059Z,69.31
2024-02-21T18:28:07.645Z,69.29
2024-02-21T18:30:34.074Z,69.55
2024-02-21T18:33:03.120Z,70.19
2024-02-21T18:35:29.658Z,69.34
2024-02-21T18:37:56.947Z,69.40
2024-02-21T18:40:23.481Z,69.20
2024-02-21T18:42:50.097Z,69.37
2024-02-21T18:45:16.986Z,68.86
2024-02-21T18:47:44.422Z,68.97
2024-02-21T18:50:12.501Z,68.44
2024-02-21T18:52:39.060Z,68.42
2024-02-21T18:55:06.457Z,68.22
2024-02-21T18:57:34.535Z,68.27
2024-02-21T19:00:07.884Z,68.36
2024-02-21T19:02:34.555Z,68.65
2024-02-21T19:05:01.140Z,68.44
2024-02-21T19:07:27.648Z,68.17
2024-02-21T19:09:54.077Z,68.31
2024-02-21T19:12:20.549Z,68.31
2024-02-21T19:14:47.436Z,68.29
2024-02-21T19:17:13.901Z,68.01
2024-02-21T19:19:40.462Z,68.25
2024-02-21T19:22:06.930Z,68.52
2024-02-21T19:24:33.606Z,68.25
2024-02-21T19:27:00.047Z,68.35
2024-02-21T19:29:26.481Z,68.59
2024-02-21T19:31:52.995Z,68.45
2024-02-21T19:34:20.987Z,68.74
2024-02-21T19:36:47.475Z,68.75
2024-02-21T19:39:13.958Z,68.93
2024-02-21T19:41:40.464Z,69.07
2024-02-21T19:44:07.221Z,68.62
2024-02-21T19:46:34.468Z,69.06
2024-02-21T19:49:02.447Z,69.04
2024-02-21T19:51:29.151Z,69.16
2024-02-21T19:54:05.328Z,68.77
2024-02-21T19:56:41.219Z,68.56
2024-02-21T19:59:07.946Z,68.28
2024-02-21T20:01:34.638Z,68.52
2024-02-21T20:04:03.236Z,68.14
2024-02-21T20:06:29.952Z,67.64
2024-02-21T20:08:59.288Z,67.44
2024-02-21T20:11:30.670Z,67.32
2024-02-21T20:13:57.880Z,67.01
2024-02-21T20:16:24.594Z,67.02
2024-02-21T20:18:51.330Z,66.25
2024-02-21T20:21:17.941Z,66.11
2024-02-21T20:23:44.497Z,66.30
2024-02-21T20:26:11.145Z,66.47
2024-02-21T20:28:37.729Z,66.54
2024-02-21T20:31:04.401Z,66.10
2024-02-21T20:33:30.874Z,65.91
2024-02-21T20:35:57.540Z,65.87
2024-02-21T20:38:24.084Z,65.73
2024-02-21T20:40:50.638Z,65.51
2024-02-21T20:43:17.278Z,64.82
2024-02-21T20:45:43.787Z,64.31
2024-02-21T20:48:10.623Z,63.69
2024-02-21T20:50:37.207Z,63.16
2024-02-21T20:53:04.019Z,62.63
2024-02-21T20:55:31.827Z,62.62
2024-02-21T20:57:58.417Z,62.71
2024-02-21T21:00:24.914Z,62.10
2024-02-21T21:02:51.890Z,61.62
2024-02-21T21:05:18.566Z,61.93
2024-02-21T21:07:45.256Z,61.87
2024-02-21T21:10:13.583Z,61.82
2024-02-21T21:12:41.025Z,61.85
2024-02-21T21:15:08.664Z,61.16
2024-02-21T21:17:35.547Z,61.36
2024-02-21T21:20:06.332Z,61.46
2024-02-21T21:22:33.342Z,61.01
2024-02-21T21:24:59.881Z,61.27
2024-02-21T21:27:27.924Z,61.69
2024-02-21T21:29:54.647Z,61.13
2024-02-21T21:32:21.153Z,61.19
2024-02-21T21:34:47.831Z,61.16
2024-02-21T21:37:14.479Z,59.73
2024-02-21T21:39:42.829Z,60.02
2024-02-21T21:42:09.274Z,60.03
2024-02-21T21:44:35.799Z,59.68
2024-02-21T21:47:03.003Z,60.21
2024-02-21T21:49:30.116Z,59.73
2024-02-21T21:51:56.700Z,59.74
2024-02-21T21:54:23.156Z,59.72
2024-02-21T21:56:49.650Z,58.78
2024-02-21T21:59:16.126Z,58.79
2024-02-21T22:01:42.861Z,58.55
2024-02-21T22:04:09.815Z,58.58
2024-02-21T22:06:36.674Z,57.61
2024-02-21T22:09:03.623Z,57.64
2024-02-21T22:11:30.081Z,57.11
2024-02-21T22:13:56.509Z,56.89
2024-02-21T22:16:23.036Z,55.58
2024-02-21T22:18:49.606Z,55.90
2024-02-21T22:21:17.871Z,56.00
2024-02-21T22:23:46.819Z,56.63
2024-02-21T22:26:15.450Z,57.75
2024-02-21T22:28:42.013Z,58.80
2024-02-21T22:31:10.598Z,59.49
2024-02-21T22:33:37.452Z,60.31
2024-02-21T22:36:04.033Z,60.98
2024-02-21T22:38:32.126Z,61.49
2024-02-21T22:40:58.594Z,62.26
2024-02-21T22:43:25.156Z,62.70
2024-02-21T22:45:51.611Z,63.22
2024-02-21T22:48:18.542Z,63.18
2024-02-21T22:50:45.585Z,63.67
2024-02-21T22:53:12.123Z,64.32
2024-02-21T22:55:38.684Z,64.47
2024-02-21T22:58:05.117Z,64.01
2024-02-21T23:00:32.024Z,63.37
2024-02-21T23:02:59.370Z,63.65
2024-02-21T23:05:25.889Z,64.44
2024-02-21T23:07:53.730Z,65.20
2024-02-21T23:10:24.473Z,65.89
2024-02-21T23:12:51.485Z,65.79
2024-02-21T23:15:18.504Z,66.29
2024-02-21T23:17:45.059Z,66.03
2024-02-21T23:20:11.890Z,66.39
2024-02-21T23:22:38.572Z,66.24
2024-02-21T23:25:05.508Z,66.71
2024-02-21T23:27:33.372Z,66.95
2024-02-21T23:29:59.853Z,66.78
2024-02-21T23:32:26.279Z,67.24
2024-02-21T23:34:52.779Z,67.21
2024-02-21T23:37:19.435Z,67.71
2024-02-21T23:39:46.012Z,67.44
2024-02-21T23:42:12.561Z,67.69
2024-02-21T23:44:39.010Z,67.80
2024-02-21T23:47:05.493Z,67.80
2024-02-21T23:49:32.074Z,68.37
2024-02-21T23:52:01.158Z,67.81
2024-02-21T23:54:27.656Z,68.05
2024-02-21T23:56:54.223Z,68.20
2024-02-21T23:59:20.780Z,68.19
